Atwood, Kansas
Current Conditions -  °F | °C
As of 8:15 AM on Sunday 23 Nov 2014 (Local Time) from KCBK Reporting Station
Overcast Overcast  
Wind Chill: 35°   Ceiling: 8000
Heat Index: 43°   Visibility: 10mi
Dew Point: 32°   Wind: 17mph
Humidity: 66%   Direction: 330°NNW
Pressure: 29.64"   Gusts: 29mph
Location:  39.81°N, 101.04°W
Report Text: KCBK 231415Z AUTO 33015G25KT 10SM SCT070 OVC080 06/00 A2964 RMK AO2
Loading
Personal Weather Stations






























Interactive Weather Map New forecast layout! Learn more

10-Day Weather Forecast

Advertisements
Track Severe Weather on mobile